PWSweather.com
Personal Weather Stations
Station Observations
THRCKWTHR1
Aveley, EssexGB RM154EL

AveleyEssexGB RM154EL

Lat: 51.5000552, Lon: 0.2501753000000235

Elevation: 98.5

Station Type: Oregon Scientific WMR88

www.facebook.com/thurrockweather

High Low Average
Temperature 55.2°F12.9°C 39.0°F3.9°C 46.3°F7.9°C
Dew Point 52.9°F11.6°C 38.5°F3.6°C 44.0°F6.7°C
Winds 11.5 mph 18.5 kmh Calm Calm 1.0 mph E1.6 kmh E
Wind Gusts 15.0 mph24.1 kmh -- 3.0 mph4.8 kmh
Humidity 98% 80% 92%
Pressure 30.36 in1028.1 mb 30.01 in1016.3 mb -
Precipitation 0.00 in0.0 mm - -
Hour Temp Dew Point Humidity Winds Wind Gusts Pressure Precip Precip Rate Daily Precip Total
12:00 AM 39.2°F4.0°C 38.7°F3.7°C 98% Calm Calm -- 30.36 in1028.1 mb 0.00 in0.0 mm 0.00 in0.0 mm 0.00 in0.0 mm
12:05 AM 39.4°F4.1°C 38.9°F3.8°C 98% Calm Calm -- 30.36 in1028.1 mb 0.00 in0.0 mm 0.00 in0.0 mm 0.00 in0.0 mm
12:10 AM 39.4°F4.1°C 38.9°F3.8°C 98% Calm Calm -- 30.36 in1028.1 mb 0.00 in0.0 mm 0.00 in0.0 mm 0.00 in0.0 mm
12:15 AM 39.4°F4.1°C 38.9°F3.8°C 98% Calm Calm -- 30.36 in1028.1 mb 0.00 in0.0 mm 0.00 in0.0 mm 0.00 in0.0 mm
12:20 AM 39.4°F4.1°C 38.9°F3.8°C 98% Calm Calm -- 30.36 in1028.1 mb 0.00 in0.0 mm 0.00 in0.0 mm 0.00 in0.0 mm
12:25 AM 39.4°F4.1°C 38.9°F3.8°C 98% Calm Calm -- 30.36 in1028.1 mb 0.00 in0.0 mm 0.00 in0.0 mm 0.00 in0.0 mm
12:30 AM 39.6°F4.2°C 39.0°F3.9°C 98% Calm Calm -- 30.36 in1028.1 mb 0.00 in0.0 mm 0.00 in0.0 mm 0.00 in0.0 mm
12:35 AM 39.6°F4.2°C 39.0°F3.9°C 98% Calm Calm -- 30.36 in1028.1 mb 0.00 in0.0 mm 0.00 in0.0 mm 0.00 in0.0 mm
12:40 AM 39.7°F4.3°C 39.2°F4.0°C 98% Calm Calm -- 30.36 in1028.1 mb 0.00 in0.0 mm 0.00 in0.0 mm 0.00 in0.0 mm
12:45 AM 39.7°F4.3°C 39.2°F4.0°C 98% Calm Calm -- 30.36 in1028.1 mb 0.00 in0.0 mm 0.00 in0.0 mm 0.00 in0.0 mm
12:50 AM 39.7°F4.3°C 39.2°F4.0°C 98% Calm Calm -- 30.36 in1028.1 mb 0.00 in0.0 mm 0.00 in0.0 mm 0.00 in0.0 mm
12:55 AM 39.9°F4.4°C 39.4°F4.1°C 98% Calm Calm -- 30.36 in1028.1 mb 0.00 in0.0 mm 0.00 in0.0 mm 0.00 in0.0 mm
01:00 AM 40.1°F4.5°C 39.6°F4.2°C 98% Calm Calm -- 30.36 in1028.1 mb 0.00 in0.0 mm 0.00 in0.0 mm 0.00 in0.0 mm
01:05 AM 40.1°F4.5°C 39.6°F4.2°C 98% Calm Calm -- 30.36 in1028.1 mb 0.00 in0.0 mm 0.00 in0.0 mm 0.00 in0.0 mm
01:10 AM 40.3°F4.6°C 39.8°F4.3°C 98% Calm Calm -- 30.36 in1028.1 mb 0.00 in0.0 mm 0.00 in0.0 mm 0.00 in0.0 mm
01:15 AM 40.5°F4.7°C 39.9°F4.4°C 98% Calm Calm -- 30.33 in1027.1 mb 0.00 in0.0 mm 0.00 in0.0 mm 0.00 in0.0 mm
01:20 AM 40.6°F4.8°C 40.1°F4.5°C 98% Calm Calm -- 30.33 in1027.1 mb 0.00 in0.0 mm 0.00 in0.0 mm 0.00 in0.0 mm
01:25 AM 40.6°F4.8°C 40.1°F4.5°C 98% Calm Calm -- 30.33 in1027.1 mb 0.00 in0.0 mm 0.00 in0.0 mm 0.00 in0.0 mm
01:30 AM 41.0°F5.0°C 40.5°F4.7°C 98% Calm Calm -- 30.33 in1027.1 mb 0.00 in0.0 mm 0.00 in0.0 mm 0.00 in0.0 mm
01:35 AM 41.0°F5.0°C 40.5°F4.7°C 98% Calm Calm -- 30.33 in1027.1 mb 0.00 in0.0 mm 0.00 in0.0 mm 0.00 in0.0 mm
01:40 AM 40.8°F4.9°C 40.3°F4.6°C 98% Calm Calm -- 30.33 in1027.1 mb 0.00 in0.0 mm 0.00 in0.0 mm 0.00 in0.0 mm
01:45 AM 40.8°F4.9°C 40.3°F4.6°C 98% Calm Calm -- 30.33 in1027.1 mb 0.00 in0.0 mm 0.00 in0.0 mm 0.00 in0.0 mm
01:50 AM 40.8°F4.9°C 40.3°F4.6°C 98% Calm Calm -- 30.33 in1027.1 mb 0.00 in0.0 mm 0.00 in0.0 mm 0.00 in0.0 mm
01:55 AM 41.0°F5.0°C 40.5°F4.7°C 98% Calm Calm -- 30.33 in1027.1 mb 0.00 in0.0 mm 0.00 in0.0 mm 0.00 in0.0 mm
02:00 AM 41.2°F5.1°C 40.7°F4.8°C 98% Calm Calm -- 30.33 in1027.1 mb 0.00 in0.0 mm 0.00 in0.0 mm 0.00 in0.0 mm
02:05 AM 41.2°F5.1°C 40.7°F4.8°C 98% Calm Calm -- 30.33 in1027.1 mb 0.00 in0.0 mm 0.00 in0.0 mm 0.00 in0.0 mm
02:10 AM 41.2°F5.1°C 40.7°F4.8°C 98% Calm Calm -- 30.33 in1027.1 mb 0.00 in0.0 mm 0.00 in0.0 mm 0.00 in0.0 mm
02:15 AM 41.2°F5.1°C 40.7°F4.8°C 98% Calm Calm -- 30.33 in1027.1 mb 0.00 in0.0 mm 0.00 in0.0 mm 0.00 in0.0 mm
02:20 AM 41.2°F5.1°C 40.7°F4.8°C 98% Calm Calm -- 30.33 in1027.1 mb 0.00 in0.0 mm 0.00 in0.0 mm 0.00 in0.0 mm
02:25 AM 41.0°F5.0°C 40.5°F4.7°C 98% Calm Calm -- 30.33 in1027.1 mb 0.00 in0.0 mm 0.00 in0.0 mm 0.00 in0.0 mm
02:30 AM 41.0°F5.0°C 40.5°F4.7°C 98% Calm Calm -- 30.33 in1027.1 mb 0.00 in0.0 mm 0.00 in0.0 mm 0.00 in0.0 mm
02:35 AM 41.0°F5.0°C 40.5°F4.7°C 98% Calm Calm -- 30.33 in1027.1 mb 0.00 in0.0 mm 0.00 in0.0 mm 0.00 in0.0 mm
02:40 AM 40.8°F4.9°C 40.3°F4.6°C 98% Calm Calm -- 30.33 in1027.1 mb 0.00 in0.0 mm 0.00 in0.0 mm 0.00 in0.0 mm
02:45 AM 40.8°F4.9°C 40.3°F4.6°C 98% Calm Calm -- 30.30 in1026.1 mb 0.00 in0.0 mm 0.00 in0.0 mm 0.00 in0.0 mm
02:50 AM 40.8°F4.9°C 40.3°F4.6°C 98% Calm Calm -- 30.30 in1026.1 mb 0.00 in0.0 mm 0.00 in0.0 mm 0.00 in0.0 mm
02:55 AM 40.6°F4.8°C 40.1°F4.5°C 98% Calm Calm -- 30.30 in1026.1 mb 0.00 in0.0 mm 0.00 in0.0 mm 0.00 in0.0 mm
03:00 AM 40.5°F4.7°C 39.9°F4.4°C 98% Calm Calm -- 30.30 in1026.1 mb 0.00 in0.0 mm 0.00 in0.0 mm 0.00 in0.0 mm
03:05 AM 40.5°F4.7°C 39.9°F4.4°C 98% Calm Calm -- 30.30 in1026.1 mb 0.00 in0.0 mm 0.00 in0.0 mm 0.00 in0.0 mm
03:10 AM 40.5°F4.7°C 39.9°F4.4°C 98% Calm Calm -- 30.30 in1026.1 mb 0.00 in0.0 mm 0.00 in0.0 mm 0.00 in0.0 mm
03:15 AM 40.1°F4.5°C 39.6°F4.2°C 98% Calm Calm -- 30.30 in1026.1 mb 0.00 in0.0 mm 0.00 in0.0 mm 0.00 in0.0 mm
03:20 AM 40.1°F4.5°C 39.6°F4.2°C 98% Calm Calm -- 30.30 in1026.1 mb 0.00 in0.0 mm 0.00 in0.0 mm 0.00 in0.0 mm
03:25 AM 39.9°F4.4°C 39.4°F4.1°C 98% Calm Calm -- 30.30 in1026.1 mb 0.00 in0.0 mm 0.00 in0.0 mm 0.00 in0.0 mm
03:30 AM 39.7°F4.3°C 39.2°F4.0°C 98% Calm Calm -- 30.30 in1026.1 mb 0.00 in0.0 mm 0.00 in0.0 mm 0.00 in0.0 mm
03:35 AM 39.7°F4.3°C 39.2°F4.0°C 98% Calm Calm -- 30.30 in1026.1 mb 0.00 in0.0 mm 0.00 in0.0 mm 0.00 in0.0 mm
03:40 AM 39.7°F4.3°C 39.2°F4.0°C 98% Calm Calm -- 30.30 in1026.1 mb 0.00 in0.0 mm 0.00 in0.0 mm 0.00 in0.0 mm
03:45 AM 39.6°F4.2°C 39.0°F3.9°C 98% Calm Calm -- 30.30 in1026.1 mb 0.00 in0.0 mm 0.00 in0.0 mm 0.00 in0.0 mm
03:50 AM 39.6°F4.2°C 39.0°F3.9°C 98% Calm Calm -- 30.30 in1026.1 mb 0.00 in0.0 mm 0.00 in0.0 mm 0.00 in0.0 mm
03:55 AM 39.4°F4.1°C 38.9°F3.8°C 98% Calm Calm -- 30.30 in1026.1 mb 0.00 in0.0 mm 0.00 in0.0 mm 0.00 in0.0 mm
04:00 AM 39.2°F4.0°C 38.7°F3.7°C 98% Calm Calm -- 30.30 in1026.1 mb 0.00 in0.0 mm 0.00 in0.0 mm 0.00 in0.0 mm
04:05 AM 39.2°F4.0°C 38.7°F3.7°C 98% Calm Calm -- 30.30 in1026.1 mb 0.00 in0.0 mm 0.00 in0.0 mm 0.00 in0.0 mm
04:10 AM 39.2°F4.0°C 38.7°F3.7°C 98% Calm Calm -- 30.30 in1026.1 mb 0.00 in0.0 mm 0.00 in0.0 mm 0.00 in0.0 mm
04:15 AM 39.0°F3.9°C 38.5°F3.6°C 98% Calm Calm -- 30.30 in1026.1 mb 0.00 in0.0 mm 0.00 in0.0 mm 0.00 in0.0 mm
04:20 AM 39.2°F4.0°C 38.7°F3.7°C 98% Calm Calm -- 30.30 in1026.1 mb 0.00 in0.0 mm 0.00 in0.0 mm 0.00 in0.0 mm
04:25 AM 39.0°F3.9°C 38.5°F3.6°C 98% Calm Calm -- 30.30 in1026.1 mb 0.00 in0.0 mm 0.00 in0.0 mm 0.00 in0.0 mm
04:30 AM 39.0°F3.9°C 38.5°F3.6°C 98% Calm Calm -- 30.30 in1026.1 mb 0.00 in0.0 mm 0.00 in0.0 mm 0.00 in0.0 mm
04:35 AM 39.0°F3.9°C 38.5°F3.6°C 98% Calm Calm -- 30.30 in1026.1 mb 0.00 in0.0 mm 0.00 in0.0 mm 0.00 in0.0 mm
04:40 AM 39.4°F4.1°C 38.9°F3.8°C 98% Calm Calm -- 30.30 in1026.1 mb 0.00 in0.0 mm 0.00 in0.0 mm 0.00 in0.0 mm
04:45 AM 39.4°F4.1°C 38.9°F3.8°C 98% Calm Calm -- 30.30 in1026.1 mb 0.00 in0.0 mm 0.00 in0.0 mm 0.00 in0.0 mm
04:50 AM 39.4°F4.1°C 38.9°F3.8°C 98% Calm Calm -- 30.30 in1026.1 mb 0.00 in0.0 mm 0.00 in0.0 mm 0.00 in0.0 mm
04:55 AM 39.4°F4.1°C 38.9°F3.8°C 98% Calm Calm -- 30.30 in1026.1 mb 0.00 in0.0 mm 0.00 in0.0 mm 0.00 in0.0 mm
05:00 AM 39.4°F4.1°C 38.9°F3.8°C 98% Calm Calm -- 30.30 in1026.1 mb 0.00 in0.0 mm 0.00 in0.0 mm 0.00 in0.0 mm
05:05 AM 39.2°F4.0°C 38.7°F3.7°C 98% Calm Calm -- 30.30 in1026.1 mb 0.00 in0.0 mm 0.00 in0.0 mm 0.00 in0.0 mm
05:10 AM 39.4°F4.1°C 38.9°F3.8°C 98% Calm Calm -- 30.30 in1026.1 mb 0.00 in0.0 mm 0.00 in0.0 mm 0.00 in0.0 mm
05:15 AM 39.6°F4.2°C 39.0°F3.9°C 98% Calm Calm -- 30.27 in1025.1 mb 0.00 in0.0 mm 0.00 in0.0 mm 0.00 in0.0 mm
05:20 AM 39.6°F4.2°C 39.0°F3.9°C 98% Calm Calm -- 30.27 in1025.1 mb 0.00 in0.0 mm 0.00 in0.0 mm 0.00 in0.0 mm
05:30 AM 39.9°F4.4°C 39.4°F4.1°C 98% Calm Calm -- 30.27 in1025.1 mb 0.00 in0.0 mm 0.00 in0.0 mm 0.00 in0.0 mm
05:35 AM 39.9°F4.4°C 39.4°F4.1°C 98% Calm Calm -- 30.27 in1025.1 mb 0.00 in0.0 mm 0.00 in0.0 mm 0.00 in0.0 mm
05:40 AM 39.9°F4.4°C 39.4°F4.1°C 98% Calm Calm -- 30.27 in1025.1 mb 0.00 in0.0 mm 0.00 in0.0 mm 0.00 in0.0 mm
05:45 AM 40.1°F4.5°C 39.6°F4.2°C 98% Calm Calm -- 30.27 in1025.1 mb 0.00 in0.0 mm 0.00 in0.0 mm 0.00 in0.0 mm
05:50 AM 40.3°F4.6°C 39.8°F4.3°C 98% Calm Calm -- 30.27 in1025.1 mb 0.00 in0.0 mm 0.00 in0.0 mm 0.00 in0.0 mm
06:00 AM 40.3°F4.6°C 39.8°F4.3°C 98% Calm Calm -- 30.27 in1025.1 mb 0.00 in0.0 mm 0.00 in0.0 mm 0.00 in0.0 mm
06:05 AM 40.6°F4.8°C 40.1°F4.5°C 98% Calm Calm -- 30.27 in1025.1 mb 0.00 in0.0 mm 0.00 in0.0 mm 0.00 in0.0 mm
06:10 AM 40.8°F4.9°C 40.3°F4.6°C 98% Calm Calm -- 30.27 in1025.1 mb 0.00 in0.0 mm 0.00 in0.0 mm 0.00 in0.0 mm
06:15 AM 40.8°F4.9°C 40.3°F4.6°C 98% Calm Calm -- 30.27 in1025.1 mb 0.00 in0.0 mm 0.00 in0.0 mm 0.00 in0.0 mm
06:20 AM 41.2°F5.1°C 40.7°F4.8°C 98% Calm Calm -- 30.27 in1025.1 mb 0.00 in0.0 mm 0.00 in0.0 mm 0.00 in0.0 mm
06:25 AM 41.5°F5.3°C 41.0°F5.0°C 98% Calm Calm -- 30.27 in1025.1 mb 0.00 in0.0 mm 0.00 in0.0 mm 0.00 in0.0 mm
06:30 AM 41.5°F5.3°C 41.0°F5.0°C 98% Calm Calm -- 30.30 in1026.1 mb 0.00 in0.0 mm 0.00 in0.0 mm 0.00 in0.0 mm
06:35 AM 41.5°F5.3°C 41.0°F5.0°C 98% Calm Calm -- 30.30 in1026.1 mb 0.00 in0.0 mm 0.00 in0.0 mm 0.00 in0.0 mm
06:40 AM 41.7°F5.4°C 41.2°F5.1°C 98% Calm Calm -- 30.30 in1026.1 mb 0.00 in0.0 mm 0.00 in0.0 mm 0.00 in0.0 mm
06:45 AM 41.7°F5.4°C 41.2°F5.1°C 98% Calm Calm -- 30.30 in1026.1 mb 0.00 in0.0 mm 0.00 in0.0 mm 0.00 in0.0 mm
06:50 AM 41.9°F5.5°C 41.4°F5.2°C 98% Calm Calm -- 30.30 in1026.1 mb 0.00 in0.0 mm 0.00 in0.0 mm 0.00 in0.0 mm
06:55 AM 42.1°F5.6°C 41.6°F5.3°C 98% Calm Calm -- 30.30 in1026.1 mb 0.00 in0.0 mm 0.00 in0.0 mm 0.00 in0.0 mm
07:00 AM 42.1°F5.6°C 41.6°F5.3°C 98% Calm Calm -- 30.30 in1026.1 mb 0.00 in0.0 mm 0.00 in0.0 mm 0.00 in0.0 mm
07:05 AM 42.3°F5.7°C 41.7°F5.4°C 98% Calm Calm -- 30.30 in1026.1 mb 0.00 in0.0 mm 0.00 in0.0 mm 0.00 in0.0 mm
07:10 AM 42.3°F5.7°C 41.7°F5.4°C 98% Calm Calm -- 30.30 in1026.1 mb 0.00 in0.0 mm 0.00 in0.0 mm 0.00 in0.0 mm
07:15 AM 42.4°F5.8°C 41.9°F5.5°C 98% Calm Calm -- 30.30 in1026.1 mb 0.00 in0.0 mm 0.00 in0.0 mm 0.00 in0.0 mm
07:20 AM 42.4°F5.8°C 41.9°F5.5°C 98% Calm Calm -- 30.30 in1026.1 mb 0.00 in0.0 mm 0.00 in0.0 mm 0.00 in0.0 mm
07:25 AM 42.6°F5.9°C 42.1°F5.6°C 98% Calm Calm -- 30.30 in1026.1 mb 0.00 in0.0 mm 0.00 in0.0 mm 0.00 in0.0 mm
07:30 AM 42.6°F5.9°C 42.1°F5.6°C 98% Calm Calm -- 30.30 in1026.1 mb 0.00 in0.0 mm 0.00 in0.0 mm 0.00 in0.0 mm
07:35 AM 42.8°F6.0°C 42.3°F5.7°C 98% Calm Calm -- 30.30 in1026.1 mb 0.00 in0.0 mm 0.00 in0.0 mm 0.00 in0.0 mm
07:40 AM 42.8°F6.0°C 42.3°F5.7°C 98% Calm Calm -- 30.30 in1026.1 mb 0.00 in0.0 mm 0.00 in0.0 mm 0.00 in0.0 mm
07:45 AM 43.2°F6.2°C 42.6°F5.9°C 98% Calm Calm -- 30.30 in1026.1 mb 0.00 in0.0 mm 0.00 in0.0 mm 0.00 in0.0 mm
07:50 AM 43.3°F6.3°C 42.8°F6.0°C 98% Calm Calm -- 30.30 in1026.1 mb 0.00 in0.0 mm 0.00 in0.0 mm 0.00 in0.0 mm
07:55 AM 43.7°F6.5°C 43.2°F6.2°C 98% Calm Calm -- 30.30 in1026.1 mb 0.00 in0.0 mm 0.00 in0.0 mm 0.00 in0.0 mm
08:00 AM 43.9°F6.6°C 43.4°F6.3°C 98% Calm Calm -- 30.30 in1026.1 mb 0.00 in0.0 mm 0.00 in0.0 mm 0.00 in0.0 mm
08:05 AM 44.2°F6.8°C 43.7°F6.5°C 98% Calm Calm -- 30.30 in1026.1 mb 0.00 in0.0 mm 0.00 in0.0 mm 0.00 in0.0 mm
08:10 AM 44.6°F7.0°C 44.1°F6.7°C 98% Calm Calm -- 30.30 in1026.1 mb 0.00 in0.0 mm 0.00 in0.0 mm 0.00 in0.0 mm
08:15 AM 44.8°F7.1°C 44.3°F6.8°C 98% Calm Calm -- 30.30 in1026.1 mb 0.00 in0.0 mm 0.00 in0.0 mm 0.00 in0.0 mm
08:20 AM 45.1°F7.3°C 44.6°F7.0°C 98% Calm Calm -- 30.30 in1026.1 mb 0.00 in0.0 mm 0.00 in0.0 mm 0.00 in0.0 mm
08:25 AM 45.3°F7.4°C 44.8°F7.1°C 98% Calm Calm -- 30.30 in1026.1 mb 0.00 in0.0 mm 0.00 in0.0 mm 0.00 in0.0 mm
08:30 AM 45.5°F7.5°C 45.0°F7.2°C 98% Calm Calm -- 30.30 in1026.1 mb 0.00 in0.0 mm 0.00 in0.0 mm 0.00 in0.0 mm
08:35 AM 45.9°F7.7°C 45.3°F7.4°C 98% Calm Calm -- 30.30 in1026.1 mb 0.00 in0.0 mm 0.00 in0.0 mm 0.00 in0.0 mm
08:40 AM 45.9°F7.7°C 45.3°F7.4°C 98% Calm Calm -- 30.30 in1026.1 mb 0.00 in0.0 mm 0.00 in0.0 mm 0.00 in0.0 mm
08:45 AM 46.2°F7.9°C 45.7°F7.6°C 98% Calm Calm -- 30.30 in1026.1 mb 0.00 in0.0 mm 0.00 in0.0 mm 0.00 in0.0 mm
08:50 AM 46.6°F8.1°C 46.0°F7.8°C 98% Calm Calm -- 30.30 in1026.1 mb 0.00 in0.0 mm 0.00 in0.0 mm 0.00 in0.0 mm
08:55 AM 46.8°F8.2°C 46.2°F7.9°C 98% Calm Calm -- 30.30 in1026.1 mb 0.00 in0.0 mm 0.00 in0.0 mm 0.00 in0.0 mm
09:00 AM 46.9°F8.3°C 46.4°F8.0°C 98% Calm Calm -- 30.27 in1025.1 mb 0.00 in0.0 mm 0.00 in0.0 mm 0.00 in0.0 mm
09:05 AM 47.1°F8.4°C 46.6°F8.1°C 98% Calm Calm -- 30.27 in1025.1 mb 0.00 in0.0 mm 0.00 in0.0 mm 0.00 in0.0 mm
09:10 AM 47.3°F8.5°C 46.8°F8.2°C 98% Calm Calm -- 30.27 in1025.1 mb 0.00 in0.0 mm 0.00 in0.0 mm 0.00 in0.0 mm
09:15 AM 47.7°F8.7°C 47.1°F8.4°C 98% Calm Calm -- 30.27 in1025.1 mb 0.00 in0.0 mm 0.00 in0.0 mm 0.00 in0.0 mm
09:20 AM 47.8°F8.8°C 47.3°F8.5°C 98% Calm Calm -- 30.27 in1025.1 mb 0.00 in0.0 mm 0.00 in0.0 mm 0.00 in0.0 mm
09:25 AM 48.0°F8.9°C 47.2°F8.4°C 97% Calm Calm -- 30.27 in1025.1 mb 0.00 in0.0 mm 0.00 in0.0 mm 0.00 in0.0 mm
09:30 AM 48.2°F9.0°C 47.4°F8.6°C 97% Calm Calm 1.4 mph2.3 kmh 30.27 in1025.1 mb 0.00 in0.0 mm 0.00 in0.0 mm 0.00 in0.0 mm
09:35 AM 48.4°F9.1°C 47.6°F8.7°C 97% Calm Calm 7.4 mph11.9 kmh 30.27 in1025.1 mb 0.00 in0.0 mm 0.00 in0.0 mm 0.00 in0.0 mm
09:40 AM 48.6°F9.2°C 47.7°F8.7°C 97% Calm Calm 7.4 mph11.9 kmh 30.27 in1025.1 mb 0.00 in0.0 mm 0.00 in0.0 mm 0.00 in0.0 mm
09:45 AM 48.7°F9.3°C 47.7°F8.7°C 96% Calm Calm 3.8 mph6.1 kmh 30.27 in1025.1 mb 0.00 in0.0 mm 0.00 in0.0 mm 0.00 in0.0 mm
09:50 AM 48.9°F9.4°C 47.8°F8.8°C 96% Calm Calm 3.5 mph5.6 kmh 30.27 in1025.1 mb 0.00 in0.0 mm 0.00 in0.0 mm 0.00 in0.0 mm
09:55 AM 49.1°F9.5°C 48.0°F8.9°C 96% Calm Calm 1.9 mph3.1 kmh 30.27 in1025.1 mb 0.00 in0.0 mm 0.00 in0.0 mm 0.00 in0.0 mm
10:00 AM 49.1°F9.5°C 48.0°F8.9°C 96% 1.1 mph SE1.8 kmh SE 3.3 mph5.3 kmh 30.27 in1025.1 mb 0.00 in0.0 mm 0.00 in0.0 mm 0.00 in0.0 mm
10:05 AM 49.3°F9.6°C 48.2°F9.0°C 96% Calm Calm 3.3 mph5.3 kmh 30.27 in1025.1 mb 0.00 in0.0 mm 0.00 in0.0 mm 0.00 in0.0 mm
10:10 AM 49.6°F9.8°C 48.5°F9.2°C 96% Calm Calm 1.1 mph1.8 kmh 30.27 in1025.1 mb 0.00 in0.0 mm 0.00 in0.0 mm 0.00 in0.0 mm
10:15 AM 49.6°F9.8°C 48.5°F9.2°C 96% Calm Calm 1.1 mph1.8 kmh 30.27 in1025.1 mb 0.00 in0.0 mm 0.00 in0.0 mm 0.00 in0.0 mm
10:20 AM 49.8°F9.9°C 48.7°F9.3°C 96% 1.4 mph SE2.3 kmh SE 3.5 mph5.6 kmh 30.27 in1025.1 mb 0.00 in0.0 mm 0.00 in0.0 mm 0.00 in0.0 mm
10:25 AM 50.0°F10.0°C 48.9°F9.4°C 96% Calm Calm 3.5 mph5.6 kmh 30.27 in1025.1 mb 0.00 in0.0 mm 0.00 in0.0 mm 0.00 in0.0 mm
10:30 AM 50.2°F10.1°C 49.1°F9.5°C 96% Calm Calm 3.3 mph5.3 kmh 30.27 in1025.1 mb 0.00 in0.0 mm 0.00 in0.0 mm 0.00 in0.0 mm
10:35 AM 50.5°F10.3°C 49.4°F9.7°C 96% Calm Calm 4.9 mph7.9 kmh 30.27 in1025.1 mb 0.00 in0.0 mm 0.00 in0.0 mm 0.00 in0.0 mm
10:40 AM 51.1°F10.6°C 50.0°F10.0°C 96% Calm Calm 4.9 mph7.9 kmh 30.27 in1025.1 mb 0.00 in0.0 mm 0.00 in0.0 mm 0.00 in0.0 mm
10:45 AM 51.6°F10.9°C 50.5°F10.3°C 96% Calm Calm 4.6 mph7.4 kmh 30.27 in1025.1 mb 0.00 in0.0 mm 0.00 in0.0 mm 0.00 in0.0 mm
10:50 AM 52.0°F11.1°C 50.6°F10.3°C 95% 1.6 mph SE2.6 kmh SE 3.8 mph6.1 kmh 30.27 in1025.1 mb 0.00 in0.0 mm 0.00 in0.0 mm 0.00 in0.0 mm
10:55 AM 52.3°F11.3°C 51.0°F10.6°C 95% 3.8 mph SE6.1 kmh SE 3.8 mph6.1 kmh 30.27 in1025.1 mb 0.00 in0.0 mm 0.00 in0.0 mm 0.00 in0.0 mm
11:00 AM 52.5°F11.4°C 50.8°F10.4°C 94% 5.7 mph SSE9.2 kmh SSE 9.8 mph15.8 kmh 30.24 in1024.0 mb 0.00 in0.0 mm 0.00 in0.0 mm 0.00 in0.0 mm
11:05 AM 53.2°F11.8°C 51.6°F10.9°C 94% 1.1 mph S1.8 kmh S 9.8 mph15.8 kmh 30.24 in1024.0 mb 0.00 in0.0 mm 0.00 in0.0 mm 0.00 in0.0 mm
11:10 AM 53.8°F12.1°C 51.8°F11.0°C 93% 3.0 mph S4.8 kmh S 7.9 mph12.7 kmh 30.24 in1024.0 mb 0.00 in0.0 mm 0.00 in0.0 mm 0.00 in0.0 mm
11:15 AM 54.5°F12.5°C 52.5°F11.4°C 93% Calm Calm 7.9 mph12.7 kmh 30.24 in1024.0 mb 0.00 in0.0 mm 0.00 in0.0 mm 0.00 in0.0 mm
11:20 AM 55.2°F12.9°C 52.9°F11.6°C 92% 3.0 mph SSE4.8 kmh SSE 4.6 mph7.4 kmh 30.24 in1024.0 mb 0.00 in0.0 mm 0.00 in0.0 mm 0.00 in0.0 mm
11:25 AM 55.2°F12.9°C 52.6°F11.4°C 91% 2.7 mph SSE4.3 kmh SSE 4.6 mph7.4 kmh 30.24 in1024.0 mb 0.00 in0.0 mm 0.00 in0.0 mm 0.00 in0.0 mm
11:30 AM 55.2°F12.9°C 52.6°F11.4°C 91% 3.5 mph S5.6 kmh S 5.2 mph8.4 kmh 30.24 in1024.0 mb 0.00 in0.0 mm 0.00 in0.0 mm 0.00 in0.0 mm
11:35 AM 54.9°F12.7°C 51.7°F10.9°C 89% Calm Calm 11.5 mph18.5 kmh 30.24 in1024.0 mb 0.00 in0.0 mm 0.00 in0.0 mm 0.00 in0.0 mm
11:40 AM 54.7°F12.6°C 51.8°F11.0°C 90% 1.1 mph SW1.8 kmh SW 11.5 mph18.5 kmh 30.24 in1024.0 mb 0.00 in0.0 mm 0.00 in0.0 mm 0.00 in0.0 mm
11:45 AM 54.7°F12.6°C 51.8°F11.0°C 90% 4.9 mph S7.9 kmh S 6.0 mph9.7 kmh 30.24 in1024.0 mb 0.00 in0.0 mm 0.00 in0.0 mm 0.00 in0.0 mm
11:50 AM 54.5°F12.5°C 51.9°F11.1°C 91% 1.1 mph SSE1.8 kmh SSE 4.9 mph7.9 kmh 30.24 in1024.0 mb 0.00 in0.0 mm 0.00 in0.0 mm 0.00 in0.0 mm
11:55 AM 54.5°F12.5°C 51.9°F11.1°C 91% 3.3 mph S5.3 kmh S 3.3 mph5.3 kmh 30.24 in1024.0 mb 0.00 in0.0 mm 0.00 in0.0 mm 0.00 in0.0 mm
12:00 PM 54.3°F12.4°C 51.4°F10.8°C 90% Calm Calm 4.6 mph7.4 kmh 30.24 in1024.0 mb 0.00 in0.0 mm 0.00 in0.0 mm 0.00 in0.0 mm
12:05 PM 54.3°F12.4°C 51.7°F10.9°C 91% 1.9 mph SSW3.1 kmh SSW 4.6 mph7.4 kmh 30.24 in1024.0 mb 0.00 in0.0 mm 0.00 in0.0 mm 0.00 in0.0 mm
12:10 PM 54.3°F12.4°C 51.7°F10.9°C 91% 1.9 mph SSW3.1 kmh SSW 5.5 mph8.9 kmh 30.24 in1024.0 mb 0.00 in0.0 mm 0.00 in0.0 mm 0.00 in0.0 mm
12:15 PM 54.3°F12.4°C 51.7°F10.9°C 91% Calm Calm 5.5 mph8.9 kmh 30.21 in1023.0 mb 0.00 in0.0 mm 0.00 in0.0 mm 0.00 in0.0 mm
12:20 PM 54.3°F12.4°C 51.4°F10.8°C 90% 1.9 mph S3.1 kmh S 4.4 mph7.1 kmh 30.21 in1023.0 mb 0.00 in0.0 mm 0.00 in0.0 mm 0.00 in0.0 mm
12:25 PM 54.5°F12.5°C 51.6°F10.9°C 90% 1.9 mph SSW3.1 kmh SSW 6.8 mph10.9 kmh 30.21 in1023.0 mb 0.00 in0.0 mm 0.00 in0.0 mm 0.00 in0.0 mm
12:30 PM 54.5°F12.5°C 51.6°F10.9°C 90% Calm Calm 6.8 mph10.9 kmh 30.21 in1023.0 mb 0.00 in0.0 mm 0.00 in0.0 mm 0.00 in0.0 mm
12:35 PM 54.7°F12.6°C 50.9°F10.5°C 87% Calm Calm 2.5 mph4.0 kmh 30.21 in1023.0 mb 0.00 in0.0 mm 0.00 in0.0 mm 0.00 in0.0 mm
12:40 PM 54.9°F12.7°C 51.1°F10.6°C 87% 8.2 mph S13.2 kmh S 8.2 mph13.2 kmh 30.21 in1023.0 mb 0.00 in0.0 mm 0.00 in0.0 mm 0.00 in0.0 mm
12:45 PM 54.7°F12.6°C 50.3°F10.2°C 85% 2.5 mph S4.0 kmh S 11.2 mph18.0 kmh 30.21 in1023.0 mb 0.00 in0.0 mm 0.00 in0.0 mm 0.00 in0.0 mm
12:50 PM 54.7°F12.6°C 50.3°F10.2°C 85% Calm Calm 11.2 mph18.0 kmh 30.21 in1023.0 mb 0.00 in0.0 mm 0.00 in0.0 mm 0.00 in0.0 mm
12:55 PM 54.9°F12.7°C 50.4°F10.2°C 85% Calm Calm 7.4 mph11.9 kmh 30.21 in1023.0 mb 0.00 in0.0 mm 0.00 in0.0 mm 0.00 in0.0 mm
01:00 PM 54.9°F12.7°C 50.4°F10.2°C 85% 4.4 mph SSW7.1 kmh SSW 7.4 mph11.9 kmh 30.21 in1023.0 mb 0.00 in0.0 mm 0.00 in0.0 mm 0.00 in0.0 mm
01:05 PM 55.0°F12.8°C 50.3°F10.2°C 84% 5.2 mph S8.4 kmh S 7.4 mph11.9 kmh 30.21 in1023.0 mb 0.00 in0.0 mm 0.00 in0.0 mm 0.00 in0.0 mm
01:10 PM 55.0°F12.8°C 50.0°F10.0°C 83% 1.1 mph SSE1.8 kmh SSE 6.8 mph10.9 kmh 30.21 in1023.0 mb 0.00 in0.0 mm 0.00 in0.0 mm 0.00 in0.0 mm
01:15 PM 54.7°F12.6°C 49.9°F9.9°C 84% Calm Calm 7.9 mph12.7 kmh 30.18 in1022.0 mb 0.00 in0.0 mm 0.00 in0.0 mm 0.00 in0.0 mm
01:20 PM 54.7°F12.6°C 50.3°F10.2°C 85% 1.4 mph SSW2.3 kmh SSW 7.9 mph12.7 kmh 30.18 in1022.0 mb 0.00 in0.0 mm 0.00 in0.0 mm 0.00 in0.0 mm
01:25 PM 54.7°F12.6°C 49.9°F9.9°C 84% Calm Calm 9.0 mph14.5 kmh 30.18 in1022.0 mb 0.00 in0.0 mm 0.00 in0.0 mm 0.00 in0.0 mm
01:30 PM 54.5°F12.5°C 49.1°F9.5°C 82% Calm Calm 9.0 mph14.5 kmh 30.18 in1022.0 mb 0.00 in0.0 mm 0.00 in0.0 mm 0.00 in0.0 mm
01:35 PM 54.5°F12.5°C 49.8°F9.9°C 84% 4.1 mph S6.6 kmh S 6.0 mph9.7 kmh 30.18 in1022.0 mb 0.00 in0.0 mm 0.00 in0.0 mm 0.00 in0.0 mm
01:40 PM 54.3°F12.4°C 49.9°F9.9°C 85% 1.9 mph SSW3.1 kmh SSW 6.8 mph10.9 kmh 30.18 in1022.0 mb 0.00 in0.0 mm 0.00 in0.0 mm 0.00 in0.0 mm
01:45 PM 54.3°F12.4°C 49.6°F9.8°C 84% 1.1 mph SW1.8 kmh SW 6.8 mph10.9 kmh 30.18 in1022.0 mb 0.00 in0.0 mm 0.00 in0.0 mm 0.00 in0.0 mm
01:50 PM 54.3°F12.4°C 49.3°F9.6°C 83% Calm Calm 13.4 mph21.6 kmh 30.18 in1022.0 mb 0.00 in0.0 mm 0.00 in0.0 mm 0.00 in0.0 mm
01:55 PM 54.1°F12.3°C 49.1°F9.5°C 83% Calm Calm 13.4 mph21.6 kmh 30.18 in1022.0 mb 0.00 in0.0 mm 0.00 in0.0 mm 0.00 in0.0 mm
02:00 PM 54.1°F12.3°C 49.4°F9.7°C 84% 5.5 mph S8.9 kmh S 9.6 mph15.4 kmh 30.15 in1021.0 mb 0.00 in0.0 mm 0.00 in0.0 mm 0.00 in0.0 mm
02:05 PM 54.0°F12.2°C 49.2°F9.6°C 84% 1.9 mph SSW3.1 kmh SSW 9.6 mph15.4 kmh 30.15 in1021.0 mb 0.00 in0.0 mm 0.00 in0.0 mm 0.00 in0.0 mm
02:10 PM 54.0°F12.2°C 48.9°F9.4°C 83% 1.4 mph SSW2.3 kmh SSW 6.8 mph10.9 kmh 30.15 in1021.0 mb 0.00 in0.0 mm 0.00 in0.0 mm 0.00 in0.0 mm
02:15 PM 54.0°F12.2°C 48.9°F9.4°C 83% 9.3 mph S15.0 kmh S 9.3 mph15.0 kmh 30.18 in1022.0 mb 0.00 in0.0 mm 0.00 in0.0 mm 0.00 in0.0 mm
02:20 PM 53.8°F12.1°C 48.7°F9.3°C 83% 3.8 mph S6.1 kmh S 9.3 mph15.0 kmh 30.18 in1022.0 mb 0.00 in0.0 mm 0.00 in0.0 mm 0.00 in0.0 mm
02:25 PM 53.8°F12.1°C 48.7°F9.3°C 83% 4.9 mph SSW7.9 kmh SSW 9.3 mph15.0 kmh 30.18 in1022.0 mb 0.00 in0.0 mm 0.00 in0.0 mm 0.00 in0.0 mm
02:30 PM 53.6°F12.0°C 48.6°F9.2°C 83% 3.3 mph S5.3 kmh S 13.4 mph21.6 kmh 30.15 in1021.0 mb 0.00 in0.0 mm 0.00 in0.0 mm 0.00 in0.0 mm
02:35 PM 53.6°F12.0°C 48.6°F9.2°C 83% Calm Calm 15.0 mph24.1 kmh 30.15 in1021.0 mb 0.00 in0.0 mm 0.00 in0.0 mm 0.00 in0.0 mm
02:40 PM 53.4°F11.9°C 48.7°F9.3°C 84% 4.1 mph SW6.6 kmh SW 15.0 mph24.1 kmh 30.15 in1021.0 mb 0.00 in0.0 mm 0.00 in0.0 mm 0.00 in0.0 mm
02:45 PM 53.2°F11.8°C 48.5°F9.2°C 84% 3.3 mph SSW5.3 kmh SSW 8.5 mph13.7 kmh 30.15 in1021.0 mb 0.00 in0.0 mm 0.00 in0.0 mm 0.00 in0.0 mm
02:50 PM 53.2°F11.8°C 48.2°F9.0°C 83% Calm Calm 8.5 mph13.7 kmh 30.15 in1021.0 mb 0.00 in0.0 mm 0.00 in0.0 mm 0.00 in0.0 mm
02:55 PM 53.1°F11.7°C 48.4°F9.1°C 84% 11.5 mph SSW18.5 kmh SSW 11.5 mph18.5 kmh 30.15 in1021.0 mb 0.00 in0.0 mm 0.00 in0.0 mm 0.00 in0.0 mm
03:00 PM 53.1°F11.7°C 48.0°F8.9°C 83% 3.8 mph SSW6.1 kmh SSW 11.5 mph18.5 kmh 30.15 in1021.0 mb 0.00 in0.0 mm 0.00 in0.0 mm 0.00 in0.0 mm
03:05 PM 52.9°F11.6°C 47.5°F8.6°C 82% 3.8 mph SW6.1 kmh SW 11.5 mph18.5 kmh 30.15 in1021.0 mb 0.00 in0.0 mm 0.00 in0.0 mm 0.00 in0.0 mm
03:10 PM 52.9°F11.6°C 47.5°F8.6°C 82% 4.1 mph SW6.6 kmh SW 6.0 mph9.7 kmh 30.15 in1021.0 mb 0.00 in0.0 mm 0.00 in0.0 mm 0.00 in0.0 mm
03:15 PM 52.9°F11.6°C 47.5°F8.6°C 82% 1.1 mph SW1.8 kmh SW 6.0 mph9.7 kmh 30.15 in1021.0 mb 0.00 in0.0 mm 0.00 in0.0 mm 0.00 in0.0 mm
03:20 PM 52.9°F11.6°C 47.5°F8.6°C 82% Calm Calm 5.5 mph8.9 kmh 30.15 in1021.0 mb 0.00 in0.0 mm 0.00 in0.0 mm 0.00 in0.0 mm
03:25 PM 52.7°F11.5°C 47.7°F8.7°C 83% Calm Calm 6.8 mph10.9 kmh 30.15 in1021.0 mb 0.00 in0.0 mm 0.00 in0.0 mm 0.00 in0.0 mm
03:30 PM 52.7°F11.5°C 47.0°F8.3°C 81% 10.6 mph SSE17.1 kmh SSE 10.6 mph17.1 kmh 30.15 in1021.0 mb 0.00 in0.0 mm 0.00 in0.0 mm 0.00 in0.0 mm
03:35 PM 52.5°F11.4°C 46.9°F8.3°C 81% 4.6 mph S7.4 kmh S 10.6 mph17.1 kmh 30.15 in1021.0 mb 0.00 in0.0 mm 0.00 in0.0 mm 0.00 in0.0 mm
03:40 PM 52.5°F11.4°C 46.5°F8.1°C 80% Calm Calm 4.6 mph7.4 kmh 30.15 in1021.0 mb 0.00 in0.0 mm 0.00 in0.0 mm 0.00 in0.0 mm
03:45 PM 52.2°F11.2°C 46.8°F8.2°C 82% 1.4 mph SSE2.3 kmh SSE 4.6 mph7.4 kmh 30.15 in1021.0 mb 0.00 in0.0 mm 0.00 in0.0 mm 0.00 in0.0 mm
03:50 PM 52.0°F11.1°C 46.3°F7.9°C 81% Calm Calm 7.1 mph11.4 kmh 30.15 in1021.0 mb 0.00 in0.0 mm 0.00 in0.0 mm 0.00 in0.0 mm
03:55 PM 51.8°F11.0°C 46.5°F8.1°C 82% Calm Calm 7.1 mph11.4 kmh 30.15 in1021.0 mb 0.00 in0.0 mm 0.00 in0.0 mm 0.00 in0.0 mm
04:00 PM 51.6°F10.9°C 46.6°F8.1°C 83% Calm Calm 1.9 mph3.1 kmh 30.15 in1021.0 mb 0.00 in0.0 mm 0.00 in0.0 mm 0.00 in0.0 mm
04:05 PM 51.6°F10.9°C 46.6°F8.1°C 83% 4.1 mph SSE6.6 kmh SSE 5.2 mph8.4 kmh 30.15 in1021.0 mb 0.00 in0.0 mm 0.00 in0.0 mm 0.00 in0.0 mm
04:10 PM 51.4°F10.8°C 46.1°F7.8°C 82% Calm Calm 5.2 mph8.4 kmh 30.15 in1021.0 mb 0.00 in0.0 mm 0.00 in0.0 mm 0.00 in0.0 mm
04:15 PM 51.3°F10.7°C 46.3°F7.9°C 83% Calm Calm 3.0 mph4.8 kmh 30.15 in1021.0 mb 0.00 in0.0 mm 0.00 in0.0 mm 0.00 in0.0 mm
04:20 PM 50.9°F10.5°C 45.9°F7.7°C 83% Calm Calm -- 30.15 in1021.0 mb 0.00 in0.0 mm 0.00 in0.0 mm 0.00 in0.0 mm
04:25 PM 50.7°F10.4°C 45.7°F7.6°C 83% Calm Calm 3.5 mph5.6 kmh 30.15 in1021.0 mb 0.00 in0.0 mm 0.00 in0.0 mm 0.00 in0.0 mm
04:30 PM 50.5°F10.3°C 45.6°F7.6°C 83% Calm Calm 6.5 mph10.5 kmh 30.12 in1020.0 mb 0.00 in0.0 mm 0.00 in0.0 mm 0.00 in0.0 mm
04:35 PM 50.5°F10.3°C 45.2°F7.3°C 82% Calm Calm 6.5 mph10.5 kmh 30.12 in1020.0 mb 0.00 in0.0 mm 0.00 in0.0 mm 0.00 in0.0 mm
04:40 PM 50.4°F10.2°C 44.7°F7.1°C 81% 3.8 mph S6.1 kmh S 3.8 mph6.1 kmh 30.12 in1020.0 mb 0.00 in0.0 mm 0.00 in0.0 mm 0.00 in0.0 mm
04:45 PM 50.2°F10.1°C 44.9°F7.2°C 82% Calm Calm 9.6 mph15.4 kmh 30.12 in1020.0 mb 0.00 in0.0 mm 0.00 in0.0 mm 0.00 in0.0 mm
04:50 PM 50.2°F10.1°C 44.9°F7.2°C 82% 3.8 mph SSE6.1 kmh SSE 9.6 mph15.4 kmh 30.12 in1020.0 mb 0.00 in0.0 mm 0.00 in0.0 mm 0.00 in0.0 mm
04:55 PM 50.0°F10.0°C 44.7°F7.1°C 82% Calm Calm 4.1 mph6.6 kmh 30.12 in1020.0 mb 0.00 in0.0 mm 0.00 in0.0 mm 0.00 in0.0 mm
05:00 PM 50.0°F10.0°C 45.0°F7.2°C 83% 5.5 mph S8.9 kmh S 5.5 mph8.9 kmh 30.12 in1020.0 mb 0.00 in0.0 mm 0.00 in0.0 mm 0.00 in0.0 mm
05:05 PM 49.8°F9.9°C 44.9°F7.2°C 83% Calm Calm 5.5 mph8.9 kmh 30.12 in1020.0 mb 0.00 in0.0 mm 0.00 in0.0 mm 0.00 in0.0 mm
05:10 PM 49.6°F9.8°C 45.0°F7.2°C 84% Calm Calm 4.6 mph7.4 kmh 30.12 in1020.0 mb 0.00 in0.0 mm 0.00 in0.0 mm 0.00 in0.0 mm
05:15 PM 49.5°F9.7°C 44.8°F7.1°C 84% 3.8 mph ESE6.1 kmh ESE 4.4 mph7.1 kmh 30.12 in1020.0 mb 0.00 in0.0 mm 0.00 in0.0 mm 0.00 in0.0 mm
05:20 PM 49.3°F9.6°C 44.6°F7.0°C 84% Calm Calm 3.8 mph6.1 kmh 30.12 in1020.0 mb 0.00 in0.0 mm 0.00 in0.0 mm 0.00 in0.0 mm
05:25 PM 49.1°F9.5°C 44.5°F6.9°C 84% Calm Calm 4.4 mph7.1 kmh 30.12 in1020.0 mb 0.00 in0.0 mm 0.00 in0.0 mm 0.00 in0.0 mm
05:30 PM 48.9°F9.4°C 44.3°F6.8°C 84% Calm Calm 4.4 mph7.1 kmh 30.12 in1020.0 mb 0.00 in0.0 mm 0.00 in0.0 mm 0.00 in0.0 mm
05:35 PM 48.9°F9.4°C 44.6°F7.0°C 85% Calm Calm 4.4 mph7.1 kmh 30.12 in1020.0 mb 0.00 in0.0 mm 0.00 in0.0 mm 0.00 in0.0 mm
05:40 PM 48.7°F9.3°C 44.1°F6.7°C 84% Calm Calm 5.2 mph8.4 kmh 30.12 in1020.0 mb 0.00 in0.0 mm 0.00 in0.0 mm 0.00 in0.0 mm
05:45 PM 48.6°F9.2°C 44.3°F6.8°C 85% 3.5 mph S5.6 kmh S 6.5 mph10.5 kmh 30.12 in1020.0 mb 0.00 in0.0 mm 0.00 in0.0 mm 0.00 in0.0 mm
05:50 PM 48.6°F9.2°C 44.3°F6.8°C 85% Calm Calm 6.5 mph10.5 kmh 30.12 in1020.0 mb 0.00 in0.0 mm 0.00 in0.0 mm 0.00 in0.0 mm
05:55 PM 48.4°F9.1°C 44.4°F6.9°C 86% Calm Calm -- 30.12 in1020.0 mb 0.00 in0.0 mm 0.00 in0.0 mm 0.00 in0.0 mm
06:00 PM 48.2°F9.0°C 43.9°F6.6°C 85% Calm Calm -- 30.12 in1020.0 mb 0.00 in0.0 mm 0.00 in0.0 mm 0.00 in0.0 mm
06:05 PM 48.0°F8.9°C 44.0°F6.7°C 86% Calm Calm -- 30.12 in1020.0 mb 0.00 in0.0 mm 0.00 in0.0 mm 0.00 in0.0 mm
06:10 PM 48.0°F8.9°C 44.0°F6.7°C 86% Calm Calm -- 30.12 in1020.0 mb 0.00 in0.0 mm 0.00 in0.0 mm 0.00 in0.0 mm
06:15 PM 47.8°F8.8°C 43.9°F6.6°C 86% Calm Calm 3.3 mph5.3 kmh 30.12 in1020.0 mb 0.00 in0.0 mm 0.00 in0.0 mm 0.00 in0.0 mm
06:20 PM 47.8°F8.8°C 43.9°F6.6°C 86% Calm Calm 3.3 mph5.3 kmh 30.12 in1020.0 mb 0.00 in0.0 mm 0.00 in0.0 mm 0.00 in0.0 mm
06:25 PM 47.7°F8.7°C 43.7°F6.5°C 86% Calm Calm -- 30.12 in1020.0 mb 0.00 in0.0 mm 0.00 in0.0 mm 0.00 in0.0 mm
06:30 PM 47.5°F8.6°C 43.8°F6.6°C 87% 3.0 mph SSE4.8 kmh SSE 4.6 mph7.4 kmh 30.12 in1020.0 mb 0.00 in0.0 mm 0.00 in0.0 mm 0.00 in0.0 mm
06:35 PM 47.3°F8.5°C 43.6°F6.4°C 87% Calm Calm 4.6 mph7.4 kmh 30.12 in1020.0 mb 0.00 in0.0 mm 0.00 in0.0 mm 0.00 in0.0 mm
06:40 PM 46.9°F8.3°C 43.3°F6.3°C 87% Calm Calm -- 30.12 in1020.0 mb 0.00 in0.0 mm 0.00 in0.0 mm 0.00 in0.0 mm
06:45 PM 46.8°F8.2°C 43.4°F6.3°C 88% Calm Calm 2.7 mph4.3 kmh 30.09 in1019.0 mb 0.00 in0.0 mm 0.00 in0.0 mm 0.00 in0.0 mm
06:50 PM 46.6°F8.1°C 43.2°F6.2°C 88% Calm Calm 2.7 mph4.3 kmh 30.09 in1019.0 mb 0.00 in0.0 mm 0.00 in0.0 mm 0.00 in0.0 mm
06:55 PM 46.4°F8.0°C 43.0°F6.1°C 88% Calm Calm 2.7 mph4.3 kmh 30.09 in1019.0 mb 0.00 in0.0 mm 0.00 in0.0 mm 0.00 in0.0 mm
07:00 PM 46.2°F7.9°C 42.9°F6.1°C 88% Calm Calm -- 30.09 in1019.0 mb 0.00 in0.0 mm 0.00 in0.0 mm 0.00 in0.0 mm
07:05 PM 46.0°F7.8°C 42.7°F5.9°C 88% Calm Calm -- 30.09 in1019.0 mb 0.00 in0.0 mm 0.00 in0.0 mm 0.00 in0.0 mm
07:10 PM 45.9°F7.7°C 42.5°F5.8°C 88% Calm Calm -- 30.09 in1019.0 mb 0.00 in0.0 mm 0.00 in0.0 mm 0.00 in0.0 mm
07:15 PM 45.9°F7.7°C 42.8°F6.0°C 89% Calm Calm -- 30.09 in1019.0 mb 0.00 in0.0 mm 0.00 in0.0 mm 0.00 in0.0 mm
07:20 PM 45.5°F7.5°C 42.4°F5.8°C 89% Calm Calm -- 30.09 in1019.0 mb 0.00 in0.0 mm 0.00 in0.0 mm 0.00 in0.0 mm
07:25 PM 45.3°F7.4°C 42.3°F5.7°C 89% Calm Calm -- 30.09 in1019.0 mb 0.00 in0.0 mm 0.00 in0.0 mm 0.00 in0.0 mm
07:30 PM 45.1°F7.3°C 42.1°F5.6°C 89% Calm Calm -- 30.09 in1019.0 mb 0.00 in0.0 mm 0.00 in0.0 mm 0.00 in0.0 mm
07:35 PM 45.3°F7.4°C 42.3°F5.7°C 89% 1.1 mph SE1.8 kmh SE 5.2 mph8.4 kmh 30.09 in1019.0 mb 0.00 in0.0 mm 0.00 in0.0 mm 0.00 in0.0 mm
07:40 PM 45.5°F7.5°C 42.4°F5.8°C 89% Calm Calm 5.2 mph8.4 kmh 30.09 in1019.0 mb 0.00 in0.0 mm 0.00 in0.0 mm 0.00 in0.0 mm
07:45 PM 45.7°F7.6°C 42.6°F5.9°C 89% Calm Calm 1.6 mph2.6 kmh 30.09 in1019.0 mb 0.00 in0.0 mm 0.00 in0.0 mm 0.00 in0.0 mm
07:50 PM 45.9°F7.7°C 42.5°F5.8°C 88% 3.8 mph SE6.1 kmh SE 3.8 mph6.1 kmh 30.09 in1019.0 mb 0.00 in0.0 mm 0.00 in0.0 mm 0.00 in0.0 mm
07:55 PM 45.9°F7.7°C 42.5°F5.8°C 88% 1.1 mph SE1.8 kmh SE 3.8 mph6.1 kmh 30.09 in1019.0 mb 0.00 in0.0 mm 0.00 in0.0 mm 0.00 in0.0 mm
08:00 PM 45.7°F7.6°C 42.3°F5.7°C 88% 1.6 mph SE2.6 kmh SE 1.9 mph3.1 kmh 30.09 in1019.0 mb 0.00 in0.0 mm 0.00 in0.0 mm 0.00 in0.0 mm
08:05 PM 45.9°F7.7°C 42.5°F5.8°C 88% Calm Calm 2.5 mph4.0 kmh 30.09 in1019.0 mb 0.00 in0.0 mm 0.00 in0.0 mm 0.00 in0.0 mm
08:10 PM 45.7°F7.6°C 42.3°F5.7°C 88% 3.3 mph SE5.3 kmh SE 4.6 mph7.4 kmh 30.09 in1019.0 mb 0.00 in0.0 mm 0.00 in0.0 mm 0.00 in0.0 mm
08:15 PM 45.5°F7.5°C 42.2°F5.7°C 88% Calm Calm 4.6 mph7.4 kmh 30.09 in1019.0 mb 0.00 in0.0 mm 0.00 in0.0 mm 0.00 in0.0 mm
08:20 PM 45.5°F7.5°C 42.4°F5.8°C 89% 3.3 mph ESE5.3 kmh ESE 3.3 mph5.3 kmh 30.09 in1019.0 mb 0.00 in0.0 mm 0.00 in0.0 mm 0.00 in0.0 mm
08:25 PM 45.3°F7.4°C 42.3°F5.7°C 89% Calm Calm 3.3 mph5.3 kmh 30.09 in1019.0 mb 0.00 in0.0 mm 0.00 in0.0 mm 0.00 in0.0 mm
08:30 PM 45.3°F7.4°C 42.3°F5.7°C 89% 3.5 mph SE5.6 kmh SE 4.1 mph6.6 kmh 30.07 in1018.3 mb 0.00 in0.0 mm 0.00 in0.0 mm 0.00 in0.0 mm
08:35 PM 45.5°F7.5°C 42.4°F5.8°C 89% 4.4 mph SE7.1 kmh SE 4.4 mph7.1 kmh 30.07 in1018.3 mb 0.00 in0.0 mm 0.00 in0.0 mm 0.00 in0.0 mm
08:40 PM 45.3°F7.4°C 42.3°F5.7°C 89% 4.4 mph SE7.1 kmh SE 4.4 mph7.1 kmh 30.07 in1018.3 mb 0.00 in0.0 mm 0.00 in0.0 mm 0.00 in0.0 mm
08:45 PM 45.3°F7.4°C 42.3°F5.7°C 89% 4.1 mph SE6.6 kmh SE 4.4 mph7.1 kmh 30.07 in1018.3 mb 0.00 in0.0 mm 0.00 in0.0 mm 0.00 in0.0 mm
08:50 PM 45.1°F7.3°C 42.1°F5.6°C 89% Calm Calm 4.4 mph7.1 kmh 30.07 in1018.3 mb 0.00 in0.0 mm 0.00 in0.0 mm 0.00 in0.0 mm
08:55 PM 45.1°F7.3°C 42.1°F5.6°C 89% Calm Calm 4.1 mph6.6 kmh 30.07 in1018.3 mb 0.00 in0.0 mm 0.00 in0.0 mm 0.00 in0.0 mm
09:00 PM 45.0°F7.2°C 41.9°F5.5°C 89% 3.5 mph SE5.6 kmh SE 4.1 mph6.6 kmh 30.07 in1018.3 mb 0.00 in0.0 mm 0.00 in0.0 mm 0.00 in0.0 mm
09:05 PM 44.8°F7.1°C 42.0°F5.6°C 90% Calm Calm 3.8 mph6.1 kmh 30.07 in1018.3 mb 0.00 in0.0 mm 0.00 in0.0 mm 0.00 in0.0 mm
09:10 PM 44.8°F7.1°C 42.0°F5.6°C 90% Calm Calm 3.5 mph5.6 kmh 30.07 in1018.3 mb 0.00 in0.0 mm 0.00 in0.0 mm 0.00 in0.0 mm
09:15 PM 44.4°F6.9°C 41.7°F5.4°C 90% Calm Calm 1.9 mph3.1 kmh 30.07 in1018.3 mb 0.00 in0.0 mm 0.00 in0.0 mm 0.00 in0.0 mm
09:20 PM 44.2°F6.8°C 41.5°F5.3°C 90% Calm Calm 3.5 mph5.6 kmh 30.07 in1018.3 mb 0.00 in0.0 mm 0.00 in0.0 mm 0.00 in0.0 mm
09:25 PM 44.2°F6.8°C 41.8°F5.4°C 91% Calm Calm 3.5 mph5.6 kmh 30.07 in1018.3 mb 0.00 in0.0 mm 0.00 in0.0 mm 0.00 in0.0 mm
09:30 PM 44.1°F6.7°C 41.6°F5.3°C 91% Calm Calm 4.1 mph6.6 kmh 30.07 in1018.3 mb 0.00 in0.0 mm 0.00 in0.0 mm 0.00 in0.0 mm
09:35 PM 44.1°F6.7°C 41.6°F5.3°C 91% 1.6 mph ESE2.6 kmh ESE 4.1 mph6.6 kmh 30.07 in1018.3 mb 0.00 in0.0 mm 0.00 in0.0 mm 0.00 in0.0 mm
09:40 PM 44.1°F6.7°C 41.6°F5.3°C 91% 3.3 mph SE5.3 kmh SE 4.1 mph6.6 kmh 30.07 in1018.3 mb 0.00 in0.0 mm 0.00 in0.0 mm 0.00 in0.0 mm
09:45 PM 44.1°F6.7°C 41.6°F5.3°C 91% Calm Calm 4.1 mph6.6 kmh 30.07 in1018.3 mb 0.00 in0.0 mm 0.00 in0.0 mm 0.00 in0.0 mm
09:50 PM 43.9°F6.6°C 41.4°F5.2°C 91% 3.3 mph ESE5.3 kmh ESE 3.3 mph5.3 kmh 30.07 in1018.3 mb 0.00 in0.0 mm 0.00 in0.0 mm 0.00 in0.0 mm
09:55 PM 44.1°F6.7°C 41.6°F5.3°C 91% 3.8 mph SE6.1 kmh SE 3.8 mph6.1 kmh 30.07 in1018.3 mb 0.00 in0.0 mm 0.00 in0.0 mm 0.00 in0.0 mm
10:00 PM 44.2°F6.8°C 41.8°F5.4°C 91% 3.0 mph SE4.8 kmh SE 4.9 mph7.9 kmh 30.04 in1017.3 mb 0.00 in0.0 mm 0.00 in0.0 mm 0.00 in0.0 mm
10:05 PM 44.4°F6.9°C 42.0°F5.6°C 91% 4.6 mph SE7.4 kmh SE 4.9 mph7.9 kmh 30.04 in1017.3 mb 0.00 in0.0 mm 0.00 in0.0 mm 0.00 in0.0 mm
10:10 PM 44.6°F7.0°C 42.1°F5.6°C 91% Calm Calm 4.6 mph7.4 kmh 30.04 in1017.3 mb 0.00 in0.0 mm 0.00 in0.0 mm 0.00 in0.0 mm
10:15 PM 44.6°F7.0°C 41.8°F5.4°C 90% 2.7 mph SE4.3 kmh SE 3.8 mph6.1 kmh 30.04 in1017.3 mb 0.00 in0.0 mm 0.00 in0.0 mm 0.00 in0.0 mm
10:20 PM 44.8°F7.1°C 42.0°F5.6°C 90% 3.0 mph SE4.8 kmh SE 3.8 mph6.1 kmh 30.04 in1017.3 mb 0.00 in0.0 mm 0.00 in0.0 mm 0.00 in0.0 mm
10:25 PM 44.8°F7.1°C 42.0°F5.6°C 90% 1.9 mph ESE3.1 kmh ESE 6.0 mph9.7 kmh 30.04 in1017.3 mb 0.00 in0.0 mm 0.00 in0.0 mm 0.00 in0.0 mm
10:30 PM 45.0°F7.2°C 41.9°F5.5°C 89% 1.4 mph ESE2.3 kmh ESE 6.0 mph9.7 kmh 30.04 in1017.3 mb 0.00 in0.0 mm 0.00 in0.0 mm 0.00 in0.0 mm
10:35 PM 45.0°F7.2°C 41.9°F5.5°C 89% 7.9 mph ESE12.7 kmh ESE 7.9 mph12.7 kmh 30.04 in1017.3 mb 0.00 in0.0 mm 0.00 in0.0 mm 0.00 in0.0 mm
10:40 PM 45.3°F7.4°C 42.3°F5.7°C 89% Calm Calm 7.9 mph12.7 kmh 30.04 in1017.3 mb 0.00 in0.0 mm 0.00 in0.0 mm 0.00 in0.0 mm
10:45 PM 45.3°F7.4°C 42.3°F5.7°C 89% Calm Calm 7.9 mph12.7 kmh 30.04 in1017.3 mb 0.00 in0.0 mm 0.00 in0.0 mm 0.00 in0.0 mm
10:50 PM 45.3°F7.4°C 42.0°F5.6°C 88% Calm Calm 4.9 mph7.9 kmh 30.04 in1017.3 mb 0.00 in0.0 mm 0.00 in0.0 mm 0.00 in0.0 mm
10:55 PM 45.5°F7.5°C 42.2°F5.7°C 88% Calm Calm 5.2 mph8.4 kmh 30.04 in1017.3 mb 0.00 in0.0 mm 0.00 in0.0 mm 0.00 in0.0 mm
11:00 PM 45.3°F7.4°C 42.0°F5.6°C 88% Calm Calm 5.2 mph8.4 kmh 30.04 in1017.3 mb 0.00 in0.0 mm 0.00 in0.0 mm 0.00 in0.0 mm
11:05 PM 45.3°F7.4°C 42.0°F5.6°C 88% Calm Calm 4.6 mph7.4 kmh 30.04 in1017.3 mb 0.00 in0.0 mm 0.00 in0.0 mm 0.00 in0.0 mm
11:10 PM 45.3°F7.4°C 42.0°F5.6°C 88% Calm Calm 4.6 mph7.4 kmh 30.04 in1017.3 mb 0.00 in0.0 mm 0.00 in0.0 mm 0.00 in0.0 mm
11:15 PM 45.3°F7.4°C 42.0°F5.6°C 88% 2.5 mph SSE4.0 kmh SSE 5.7 mph9.2 kmh 30.01 in1016.3 mb 0.00 in0.0 mm 0.00 in0.0 mm 0.00 in0.0 mm
11:20 PM 45.3°F7.4°C 42.0°F5.6°C 88% 3.0 mph SSE4.8 kmh SSE 5.7 mph9.2 kmh 30.01 in1016.3 mb 0.00 in0.0 mm 0.00 in0.0 mm 0.00 in0.0 mm
11:25 PM 45.3°F7.4°C 41.7°F5.4°C 87% 2.5 mph SE4.0 kmh SE 5.2 mph8.4 kmh 30.01 in1016.3 mb 0.00 in0.0 mm 0.00 in0.0 mm 0.00 in0.0 mm
11:30 PM 45.3°F7.4°C 41.7°F5.4°C 87% 4.9 mph SE7.9 kmh SE 5.2 mph8.4 kmh 30.01 in1016.3 mb 0.00 in0.0 mm 0.00 in0.0 mm 0.00 in0.0 mm
11:35 PM 45.3°F7.4°C 41.7°F5.4°C 87% 1.4 mph SE2.3 kmh SE 6.0 mph9.7 kmh 30.01 in1016.3 mb 0.00 in0.0 mm 0.00 in0.0 mm 0.00 in0.0 mm
11:40 PM 45.1°F7.3°C 41.5°F5.3°C 87% Calm Calm 6.0 mph9.7 kmh 30.01 in1016.3 mb 0.00 in0.0 mm 0.00 in0.0 mm 0.00 in0.0 mm
11:45 PM 45.1°F7.3°C 41.8°F5.4°C 88% 3.8 mph SE6.1 kmh SE 4.6 mph7.4 kmh 30.01 in1016.3 mb 0.00 in0.0 mm 0.00 in0.0 mm 0.00 in0.0 mm
11:50 PM 45.1°F7.3°C 41.8°F5.4°C 88% Calm Calm 3.8 mph6.1 kmh 30.01 in1016.3 mb 0.00 in0.0 mm 0.00 in0.0 mm 0.00 in0.0 mm
11:55 PM 45.0°F7.2°C 41.6°F5.3°C 88% Calm Calm 4.4 mph7.1 kmh 30.01 in1016.3 mb 0.00 in0.0 mm 0.00 in0.0 mm 0.00 in0.0 mm